createdAt,value
2019-05-02T00:02:30.035Z,70.92
2019-05-02T00:05:00.064Z,71.13
2019-05-02T00:07:29.908Z,71.26
2019-05-02T00:09:59.794Z,71.74
2019-05-02T00:12:29.787Z,72.46
2019-05-02T00:15:02.006Z,72.85
2019-05-02T00:17:33.815Z,72.70
2019-05-02T00:20:05.304Z,72.96
2019-05-02T00:22:35.207Z,72.70
2019-05-02T00:25:10.993Z,73.34
2019-05-02T00:27:38.933Z,73.63
2019-05-02T00:30:10.558Z,73.60
2019-05-02T00:32:40.285Z,73.79
2019-05-02T00:35:10.202Z,74.08
2019-05-02T00:37:40.038Z,74.10
2019-05-02T00:40:10.044Z,74.17
2019-05-02T00:42:39.901Z,74.25
2019-05-02T00:45:09.789Z,74.40
2019-05-02T00:47:59.152Z,74.75
2019-05-02T00:50:30.623Z,74.91
2019-05-02T00:53:00.465Z,74.91
2019-05-02T00:55:33.888Z,74.99
2019-05-02T00:58:01.636Z,75.24
2019-05-02T01:00:33.017Z,75.37
2019-05-02T01:03:03.321Z,75.72
2019-05-02T01:05:33.699Z,76.03
2019-05-02T01:08:04.673Z,76.36
2019-05-02T01:10:34.476Z,76.32
2019-05-02T01:13:04.293Z,76.47
2019-05-02T10:44:59.022Z,63.65
2019-05-02T10:47:28.807Z,62.77
2019-05-02T10:50:02.300Z,60.48
2019-05-02T10:52:34.210Z,62.14
2019-05-02T10:55:05.353Z,60.29
2019-05-02T10:57:35.290Z,63.03
2019-05-02T11:00:08.196Z,61.50
2019-05-02T11:02:41.890Z,62.72
2019-05-02T11:05:16.871Z,64.30
2019-05-02T11:07:44.636Z,67.69
2019-05-02T11:10:14.794Z,67.63
2019-05-02T11:12:47.003Z,61.58
2019-05-02T11:15:26.814Z,61.91
2019-05-02T11:17:57.228Z,64.92
2019-05-02T11:20:27.303Z,60.60
2019-05-02T11:22:57.241Z,57.33
2019-05-02T11:25:27.164Z,59.04
2019-05-02T11:27:57.246Z,59.89
2019-05-02T11:30:28.639Z,60.31
2019-05-02T11:32:58.625Z,62.90
2019-05-02T11:35:31.697Z,66.46
2019-05-02T11:38:02.609Z,69.55
2019-05-02T11:40:32.509Z,71.25
2019-05-02T11:43:06.676Z,69.91
2019-05-02T11:45:34.032Z,67.18
2019-05-02T11:48:09.324Z,59.89
2019-05-02T11:50:35.841Z,57.57
2019-05-02T11:53:09.280Z,58.43
2019-05-02T11:55:37.428Z,58.50
2019-05-02T11:58:08.559Z,56.67
2019-05-02T12:00:39.811Z,56.22
2019-05-02T12:03:21.966Z,60.12
2019-05-02T12:05:53.437Z,62.69
2019-05-02T12:08:23.379Z,62.38
2019-05-02T12:10:53.511Z,59.37
2019-05-02T12:13:23.441Z,60.51
2019-05-02T12:15:53.368Z,60.56
2019-05-02T12:18:23.547Z,60.20
2019-05-02T12:20:53.465Z,56.30
2019-05-02T12:23:24.417Z,49.15
2019-05-02T12:25:54.452Z,50.03
2019-05-02T12:28:24.385Z,54.28
2019-05-02T12:30:54.220Z,53.31
2019-05-02T12:33:25.794Z,46.37
2019-05-02T12:35:55.721Z,52.70
2019-05-02T12:38:25.769Z,41.54
2019-05-02T12:40:58.019Z,47.97
2019-05-02T12:43:28.088Z,49.53
2019-05-02T12:45:58.022Z,52.01
2019-05-02T12:48:27.944Z,38.56
2019-05-02T12:50:59.435Z,35.35
2019-05-02T12:53:29.363Z,43.73
2019-05-02T12:55:59.389Z,46.30
2019-05-02T12:58:29.288Z,28.36
2019-05-02T13:00:59.227Z,30.25
2019-05-02T13:03:43.644Z,31.78
2019-05-02T13:06:13.751Z,28.47
2019-05-02T13:08:52.102Z,32.36
2019-05-02T13:11:31.990Z,33.87
2019-05-02T13:14:02.181Z,41.43
2019-05-02T13:16:33.676Z,33.73
2019-05-02T13:19:06.281Z,39.47
2019-05-02T13:21:57.976Z,42.51
2019-05-02T13:24:33.521Z,43.90
2019-05-02T13:27:06.594Z,45.22
2019-05-02T13:29:36.421Z,33.51
2019-05-02T13:32:08.694Z,29.11
2019-05-02T13:34:48.685Z,26.58
2019-05-02T13:37:17.608Z,23.92
2019-05-02T13:40:04.433Z,29.56
2019-05-02T13:42:34.371Z,27.95
2019-05-02T13:45:07.128Z,25.78
2019-05-02T13:47:36.998Z,29.67
2019-05-02T13:50:08.101Z,34.15
2019-05-02T13:52:38.189Z,36.86
2019-05-02T13:55:11.716Z,34.75
2019-05-02T13:57:46.887Z,35.43
2019-05-02T14:00:15.854Z,35.24
2019-05-02T14:02:46.940Z,34.40
2019-05-02T14:05:17.068Z,36.19
2019-05-02T14:07:55.674Z,39.34
2019-05-02T14:10:39.347Z,42.38
2019-05-02T14:13:06.111Z,43.19
2019-05-02T14:15:37.771Z,44.74
2019-05-02T14:18:07.816Z,46.00
2019-05-02T14:20:37.883Z,45.22
2019-05-02T14:23:07.977Z,44.92
2019-05-02T14:25:37.940Z,45.11
2019-05-02T14:28:07.960Z,45.38
2019-05-02T14:30:43.349Z,43.34
2019-05-02T14:33:11.767Z,41.53
2019-05-02T14:35:42.583Z,37.76
2019-05-02T14:38:13.516Z,36.11
2019-05-02T14:41:03.205Z,36.42
2019-05-02T14:43:53.304Z,40.07
2019-05-02T14:46:28.852Z,42.58
2019-05-02T14:48:57.127Z,40.58
2019-05-02T14:51:28.133Z,42.72
2019-05-02T14:54:05.835Z,43.49
2019-05-02T14:56:47.805Z,44.81
2019-05-02T14:59:19.733Z,46.09
2019-05-02T15:01:48.506Z,45.18
2019-05-02T15:04:18.450Z,44.74
2019-05-02T15:06:48.380Z,42.42
2019-05-02T15:09:24.862Z,38.30
2019-05-02T15:11:59.095Z,38.24
2019-05-02T15:14:32.669Z,35.84
2019-05-02T15:17:03.767Z,36.42
2019-05-02T15:19:33.898Z,36.48
2019-05-02T15:22:03.830Z,36.89
2019-05-02T15:24:37.335Z,35.08
2019-05-02T15:27:12.110Z,34.60
2019-05-02T15:29:42.873Z,35.16
2019-05-02T15:32:25.555Z,35.97
2019-05-02T15:35:02.491Z,37.08
2019-05-02T15:37:35.826Z,37.53
2019-05-02T15:42:38.336Z,37.93
2019-05-02T15:45:08.632Z,38.40
2019-05-02T15:47:41.565Z,39.87
2019-05-02T15:50:14.745Z,40.77
2019-05-02T15:52:57.341Z,41.68
2019-05-02T15:55:24.635Z,42.47
2019-05-02T15:57:54.674Z,42.79
2019-05-02T16:00:26.501Z,43.24
2019-05-02T16:03:00.808Z,44.02
2019-05-02T16:05:28.063Z,45.75
2019-05-02T16:08:05.292Z,46.81
2019-05-02T16:10:31.599Z,47.83
2019-05-02T16:13:03.243Z,48.76
2019-05-02T16:15:33.275Z,49.36
2019-05-02T16:18:05.209Z,49.34
2019-05-02T16:21:04.768Z,49.82
2019-05-02T16:23:32.770Z,50.06
2019-05-02T16:26:03.804Z,50.44
2019-05-02T16:28:32.406Z,50.93
2019-05-02T16:31:03.978Z,50.92
2019-05-02T16:33:34.971Z,51.46
2019-05-02T16:36:05.115Z,51.82
2019-05-02T16:38:35.273Z,52.53
2019-05-02T16:41:09.723Z,53.12
2019-05-02T16:43:36.869Z,53.74
2019-05-02T16:46:11.922Z,54.12
2019-05-02T16:48:39.204Z,54.68
2019-05-02T16:51:27.648Z,55.24
2019-05-02T16:53:42.702Z,56.19
2019-05-02T16:56:12.561Z,56.75
2019-05-02T16:58:45.976Z,57.73
2019-05-02T17:01:19.754Z,58.88
2019-05-02T17:03:45.834Z,59.15
2019-05-02T17:06:16.929Z,59.57
2019-05-02T17:08:57.469Z,59.93
2019-05-02T17:11:27.888Z,61.25
2019-05-02T17:13:56.837Z,62.05
2019-05-02T17:16:26.779Z,62.87
2019-05-02T17:18:56.722Z,63.09
2019-05-02T17:21:31.438Z,64.12
2019-05-02T17:23:58.417Z,64.62
2019-05-02T17:26:29.373Z,65.48
2019-05-02T17:28:59.286Z,66.22
2019-05-02T17:31:29.273Z,66.64
2019-05-02T17:33:59.296Z,67.67
2019-05-02T17:36:30.624Z,67.95
2019-05-02T17:39:06.774Z,68.38
2019-05-02T17:41:37.021Z,68.77
2019-05-02T17:44:05.719Z,69.02
2019-05-02T17:46:36.688Z,68.80
2019-05-02T17:49:06.568Z,68.97
2019-05-02T17:52:04.981Z,69.76
2019-05-02T17:54:26.398Z,70.46
2019-05-02T17:56:57.407Z,71.59
2019-05-02T17:59:34.433Z,72.18
2019-05-02T18:02:01.836Z,72.57
2019-05-02T18:04:32.487Z,72.90
2019-05-02T18:07:01.888Z,72.77
2019-05-02T18:09:35.030Z,72.12
2019-05-02T18:12:07.280Z,71.78
2019-05-02T18:14:34.946Z,71.86
2019-05-02T18:17:04.900Z,72.17
2019-05-02T18:19:34.826Z,72.42
2019-05-02T18:22:08.300Z,73.05
2019-05-02T18:24:37.335Z,73.38
2019-05-02T18:27:08.413Z,73.53
2019-05-02T18:29:42.431Z,74.06
2019-05-02T18:32:10.026Z,73.88
2019-05-02T18:34:41.803Z,73.62
2019-05-02T18:37:11.630Z,73.09
2019-05-02T18:39:46.184Z,72.63
2019-05-02T18:42:16.646Z,72.39
2019-05-02T18:44:48.310Z,72.74
2019-05-02T18:47:20.179Z,72.67
2019-05-02T18:49:53.766Z,72.31
2019-05-02T18:52:23.839Z,72.44
2019-05-02T18:54:52.738Z,72.11
2019-05-02T18:57:25.990Z,71.88
2019-05-02T18:59:56.501Z,71.60
2019-05-02T19:02:26.395Z,71.13
2019-05-02T19:04:57.553Z,69.96
2019-05-02T19:07:33.026Z,71.07
2019-05-02T19:10:04.270Z,69.97
2019-05-02T19:12:32.815Z,69.72
2019-05-02T19:15:06.864Z,70.15
2019-05-02T19:17:38.573Z,69.79
2019-05-02T19:20:19.102Z,69.78
2019-05-02T19:22:54.759Z,69.01
2019-05-02T19:25:22.674Z,66.37
2019-05-02T19:27:57.574Z,67.73
2019-05-02T19:30:32.497Z,65.86
2019-05-02T19:33:03.715Z,66.34
2019-05-02T19:35:37.669Z,66.80
2019-05-02T19:38:05.801Z,66.63
2019-05-02T19:40:35.752Z,67.33
2019-05-02T19:43:07.669Z,66.74
2019-05-02T19:45:37.451Z,67.86
2019-05-02T19:48:07.389Z,68.93
2019-05-02T19:50:43.470Z,68.41
2019-05-02T19:53:18.060Z,68.92
2019-05-02T19:55:42.906Z,69.34
2019-05-02T19:58:13.159Z,69.59
2019-05-02T20:00:46.181Z,69.27
2019-05-02T20:03:21.833Z,70.27
2019-05-02T20:05:48.420Z,70.71
2019-05-02T20:08:21.320Z,70.45
2019-05-02T20:10:54.149Z,69.96
2019-05-02T20:13:28.032Z,69.55
2019-05-02T20:15:57.154Z,70.81
2019-05-02T20:18:28.165Z,70.71
2019-05-02T20:20:59.547Z,70.39
2019-05-02T20:23:34.891Z,71.20
2019-05-02T20:26:01.166Z,71.21
2019-05-02T20:28:31.831Z,70.54
2019-05-02T20:31:02.976Z,70.47
2019-05-02T20:33:33.011Z,70.57
2019-05-02T20:36:03.055Z,70.58
2019-05-02T20:38:32.975Z,70.32
2019-05-02T20:41:03.106Z,70.86
2019-05-02T20:43:33.972Z,70.96
2019-05-02T20:46:04.217Z,70.95
2019-05-02T20:48:34.152Z,71.23
2019-05-02T20:51:04.083Z,71.54
2019-05-02T20:53:34.365Z,71.88
2019-05-02T20:56:04.766Z,71.39
2019-05-02T20:58:34.705Z,70.77
2019-05-02T21:01:08.699Z,70.59
2019-05-02T21:03:36.731Z,69.81
2019-05-02T21:06:08.393Z,68.88
2019-05-02T21:08:43.039Z,69.04
2019-05-02T21:11:13.276Z,69.25
2019-05-02T21:13:43.222Z,69.62
2019-05-02T21:16:13.143Z,69.60
2019-05-02T21:18:43.080Z,69.13
2019-05-02T21:21:13.130Z,68.79
2019-05-02T21:23:47.304Z,68.03
2019-05-02T21:26:14.740Z,68.07
2019-05-02T21:28:46.236Z,68.31
2019-05-02T21:31:16.140Z,67.99
2019-05-02T21:33:46.065Z,68.34
2019-05-02T21:36:16.115Z,67.84
2019-05-02T21:38:46.037Z,68.41
2019-05-02T21:41:16.173Z,68.09
2019-05-02T21:43:46.086Z,68.52
2019-05-02T21:46:16.049Z,68.03
2019-05-02T21:48:45.897Z,68.80
2019-05-02T21:51:20.069Z,68.70
2019-05-02T21:54:02.856Z,68.18
2019-05-02T21:56:37.073Z,67.55
2019-05-02T21:59:12.184Z,67.88
2019-05-02T22:01:51.743Z,67.79
2019-05-02T22:04:22.717Z,68.35
2019-05-02T22:06:52.960Z,67.51
2019-05-02T22:09:23.386Z,67.20
2019-05-02T22:11:53.347Z,66.86
2019-05-02T22:14:23.172Z,66.42
2019-05-02T22:16:53.227Z,66.04
2019-05-02T22:19:23.121Z,66.91
2019-05-02T22:21:53.070Z,67.59
2019-05-02T22:24:23.016Z,66.09
2019-05-02T22:26:52.945Z,68.07
2019-05-02T22:29:24.016Z,64.49
2019-05-02T22:31:54.578Z,62.82
2019-05-02T22:34:23.802Z,62.46
2019-05-02T22:36:54.314Z,63.50
2019-05-02T22:39:35.196Z,63.88
2019-05-02T22:42:04.849Z,64.31
2019-05-02T22:44:34.670Z,66.05
2019-05-02T22:47:04.700Z,66.27
2019-05-02T22:49:34.529Z,65.83
2019-05-02T22:52:04.672Z,64.82
2019-05-02T22:54:34.709Z,64.36
2019-05-02T22:57:04.856Z,64.22
2019-05-02T22:59:34.789Z,64.56
2019-05-02T23:02:04.715Z,64.76
2019-05-02T23:04:34.655Z,64.70
2019-05-02T23:07:04.583Z,64.31
2019-05-02T23:09:34.529Z,63.93
2019-05-02T23:12:04.756Z,63.84
2019-05-02T23:14:34.654Z,63.90
2019-05-02T23:17:04.628Z,64.16
2019-05-02T23:19:34.774Z,63.81
2019-05-02T23:22:05.300Z,63.81
2019-05-02T23:24:52.084Z,63.99
2019-05-02T23:27:39.864Z,64.39
2019-05-02T23:30:14.225Z,64.69
2019-05-02T23:32:44.333Z,65.69
2019-05-02T23:35:14.270Z,66.12
2019-05-02T23:37:44.202Z,66.68
2019-05-02T23:40:14.450Z,67.28
2019-05-02T23:42:44.493Z,67.69
2019-05-02T23:45:14.514Z,68.60
2019-05-02T23:47:44.413Z,69.39
2019-05-02T23:50:14.788Z,69.72
2019-05-02T23:52:44.732Z,69.69
2019-05-02T23:55:14.638Z,70.58
2019-05-02T23:57:44.596Z,70.93
